Time;durP1;ratioP1;P1;durP2;ratioP2;P2;SDS_P1;SDS_P2;PMS_P1;PMS_P2;Temp;Humidity;BMP_temperature;BMP_pressure;BME280_temperature;BME280_humidity;BME280_pressure;Samples;Min_cycle;Max_cycle;Signal;HPM_P1;HPM_P2
2023/04/19 00:02:19;;;;;;;4.77;3.93;;;11.60;99.90;;;;;;10428921;28;20575;-68
2023/04/19 00:07:20;;;;;;;5.80;3.80;;;11.60;99.90;;;;;;10432468;28;20220;-67
2023/04/19 00:12:20;;;;;;;8.70;5.00;;;11.60;99.90;;;;;;10429633;28;20259;-67
2023/04/19 00:17:21;;;;;;;5.93;3.87;;;11.60;99.90;;;;;;10433277;28;20293;-67
2023/04/19 00:22:22;;;;;;;5.07;3.67;;;11.60;99.90;;;;;;10429040;28;20225;-68
2023/04/19 00:27:22;;;;;;;5.10;4.03;;;11.60;99.90;;;;;;10432124;28;20287;-68
2023/04/19 00:32:23;;;;;;;4.57;3.50;;;11.60;99.90;;;;;;10428566;28;20278;-68
2023/04/19 00:37:24;;;;;;;5.47;3.90;;;11.60;99.90;;;;;;10431777;28;20235;-67
2023/04/19 00:42:24;;;;;;;5.97;4.53;;;11.60;99.90;;;;;;10425775;28;20298;-66
2023/04/19 00:47:25;;;;;;;4.37;3.80;;;11.60;99.90;;;;;;10425932;28;20243;-67
2023/04/19 00:52:25;;;;;;;4.90;3.60;;;11.50;99.90;;;;;;10424613;28;20401;-69
2023/04/19 00:57:28;;;;;;;5.67;4.10;;;11.50;99.90;;;;;;10425128;28;20581;-69
2023/04/19 01:02:29;;;;;;;6.73;4.87;;;11.50;99.90;;;;;;10428603;28;20311;-71
2023/04/19 01:07:29;;;;;;;6.50;3.83;;;11.50;99.90;;;;;;10433076;28;20766;-70
2023/04/19 01:12:30;;;;;;;5.60;4.03;;;11.50;99.90;;;;;;10425084;28;20847;-70
2023/04/19 01:17:34;;;;;;;4.20;3.80;;;11.50;99.90;;;;;;10432636;28;20242;-71
2023/04/19 01:22:36;;;;;;;4.03;3.53;;;11.50;99.90;;;;;;10421280;28;20824;-72
2023/04/19 01:27:37;;;;;;;5.83;4.00;;;11.50;99.90;;;;;;10416791;28;20715;-72
2023/04/19 01:32:37;;;;;;;6.90;4.50;;;11.40;99.90;;;;;;10423979;28;20260;-71
2023/04/19 01:37:38;;;;;;;7.03;4.57;;;11.40;99.90;;;;;;10424068;28;20307;-69
2023/04/19 01:42:39;;;;;;;5.40;4.13;;;11.40;99.90;;;;;;10431563;28;20223;-68
2023/04/19 01:47:39;;;;;;;3.80;3.30;;;11.40;99.90;;;;;;10419629;28;20223;-70
2023/04/19 01:52:40;;;;;;;5.97;4.40;;;11.40;99.90;;;;;;10430758;28;20675;-70
2023/04/19 01:57:40;;;;;;;6.90;4.53;;;11.40;99.90;;;;;;10422724;28;20223;-71
2023/04/19 02:02:41;;;;;;;7.50;4.50;;;11.40;99.90;;;;;;10430718;28;20285;-70
2023/04/19 02:07:42;;;;;;;5.97;4.40;;;11.30;99.90;;;;;;10423064;28;20255;-70
2023/04/19 02:12:42;;;;;;;6.10;4.70;;;11.30;99.90;;;;;;10422617;28;20225;-70
2023/04/19 02:17:45;;;;;;;5.53;4.33;;;11.20;99.90;;;;;;10421169;28;20231;-71
2023/04/19 02:22:46;;;;;;;6.10;4.43;;;11.20;99.90;;;;;;10431130;28;20232;-70
2023/04/19 02:27:47;;;;;;;4.83;4.30;;;11.20;99.90;;;;;;10429562;28;20216;-69
2023/04/19 02:32:48;;;;;;;4.67;4.17;;;11.20;99.90;;;;;;10424492;28;20303;-69
2023/04/19 02:37:49;;;;;;;4.70;4.20;;;11.20;99.90;;;;;;10423524;28;20246;-68
2023/04/19 02:42:50;;;;;;;4.70;4.03;;;11.10;99.90;;;;;;10421705;28;20216;-69
2023/04/19 02:47:50;;;;;;;4.90;4.40;;;11.00;99.90;;;;;;10421639;28;20307;-69
2023/04/19 02:52:51;;;;;;;4.77;4.33;;;11.00;99.90;;;;;;10422125;28;20709;-68
2023/04/19 02:57:51;;;;;;;5.07;4.40;;;11.00;99.90;;;;;;10409985;28;20303;-69
2023/04/19 03:02:52;;;;;;;4.77;4.10;;;10.90;99.90;;;;;;10422193;28;20244;-70
2023/04/19 03:07:52;;;;;;;4.67;4.13;;;10.90;99.90;;;;;;10416646;28;20572;-69
2023/04/19 03:12:59;;;;;;;7.87;5.30;;;10.80;99.90;;;;;;10422811;28;20216;-70
2023/04/19 03:17:59;;;;;;;9.17;6.17;;;10.80;99.90;;;;;;10427986;28;20231;-70
2023/04/19 03:23:00;;;;;;;9.03;5.67;;;10.80;99.90;;;;;;10426084;28;20221;-70
2023/04/19 03:28:01;;;;;;;14.47;7.33;;;10.70;99.90;;;;;;10431438;28;20224;-69
2023/04/19 03:33:02;;;;;;;13.57;7.37;;;10.70;99.90;;;;;;10433770;28;20584;-71
2023/04/19 03:38:03;;;;;;;7.83;5.30;;;10.60;99.90;;;;;;10428865;28;20219;-71
2023/04/19 03:43:07;;;;;;;7.57;5.53;;;10.60;99.90;;;;;;10430616;28;20318;-70
2023/04/19 03:48:07;;;;;;;9.23;6.13;;;10.60;99.90;;;;;;10428352;28;20224;-70
2023/04/19 03:53:09;;;;;;;10.77;5.70;;;10.60;99.90;;;;;;10436792;28;20243;-72
2023/04/19 03:58:10;;;;;;;8.43;6.97;;;10.50;99.90;;;;;;10433041;28;20330;-73
2023/04/19 04:03:11;;;;;;;8.77;7.07;;;10.50;99.90;;;;;;10423461;28;20350;-72
2023/04/19 04:08:12;;;;;;;14.67;7.80;;;10.50;99.90;;;;;;10431540;28;20259;-71
2023/04/19 04:13:13;;;;;;;9.27;7.80;;;10.40;99.90;;;;;;10433607;28;20219;-72
2023/04/19 04:18:15;;;;;;;9.13;7.53;;;10.30;99.90;;;;;;10436170;28;20239;-73
2023/04/19 04:23:15;;;;;;;8.93;7.47;;;10.20;99.90;;;;;;10430695;28;20235;-73
2023/04/19 04:28:16;;;;;;;9.10;8.10;;;10.10;99.90;;;;;;10439562;28;20706;-73
2023/04/19 04:33:17;;;;;;;10.17;8.20;;;10.00;99.90;;;;;;10432837;28;20222;-72
2023/04/19 04:38:17;;;;;;;9.40;8.40;;;10.00;99.90;;;;;;10428151;28;20248;-70
2023/04/19 04:43:22;;;;;;;9.07;8.00;;;9.90;99.90;;;;;;10424766;28;20215;-71
2023/04/19 04:48:23;;;;;;;11.03;8.60;;;9.90;99.90;;;;;;10427936;28;20255;-72
2023/04/19 04:53:27;;;;;;;10.67;8.53;;;10.00;99.90;;;;;;10426143;28;20228;-72
2023/04/19 04:58:27;;;;;;;10.03;8.73;;;10.00;99.90;;;;;;10423846;28;20302;-72
2023/04/19 05:03:30;;;;;;;12.33;8.97;;;10.00;99.90;;;;;;10425400;28;20222;-75
2023/04/19 05:08:30;;;;;;;11.30;9.70;;;10.00;99.90;;;;;;10427582;28;20298;-76
2023/04/19 05:13:31;;;;;;;15.83;10.00;;;10.10;99.90;;;;;;10423647;28;20224;-78
2023/04/19 05:18:31;;;;;;;11.27;9.17;;;10.10;99.90;;;;;;10423167;28;20236;-74
2023/04/19 05:23:32;;;;;;;12.87;10.17;;;10.20;99.90;;;;;;10425054;28;20221;-74
2023/04/19 05:28:33;;;;;;;11.67;9.50;;;10.40;99.90;;;;;;10430211;28;20215;-73
2023/04/19 05:33:33;;;;;;;11.33;9.80;;;10.50;99.90;;;;;;10423421;28;20286;-75
2023/04/19 05:38:34;;;;;;;11.20;9.97;;;10.70;99.90;;;;;;10418578;28;20651;-73
2023/04/19 05:43:38;;;;;;;11.30;9.73;;;10.80;99.90;;;;;;10407968;28;20219;-73
2023/04/19 05:48:39;;;;;;;12.70;9.70;;;10.90;99.90;;;;;;10432772;28;20770;-73
2023/04/19 05:53:39;;;;;;;14.87;10.20;;;11.10;99.90;;;;;;10402744;28;20302;-69
2023/04/19 05:58:40;;;;;;;10.87;9.47;;;11.00;99.90;;;;;;10425220;28;20373;-68
2023/04/19 06:03:40;;;;;;;11.23;9.00;;;11.20;99.90;;;;;;10418798;28;20216;-69
2023/04/19 06:08:41;;;;;;;14.20;9.03;;;12.20;99.90;;;;;;10406697;28;20246;-70
2023/04/19 06:13:43;;;;;;;9.27;8.10;;;13.60;99.90;;;;;;10422147;28;20311;-70
2023/04/19 06:18:44;;;;;;;11.53;8.90;;;14.30;99.90;;;;;;10410006;28;20890;-69
2023/04/19 06:23:44;;;;;;;9.70;8.43;;;15.40;99.90;;;;;;10416487;28;20228;-69
2023/04/19 06:28:45;;;;;;;10.80;8.83;;;14.80;99.90;;;;;;10420035;28;20750;-72
2023/04/19 06:33:46;;;;;;;9.90;8.13;;;13.80;99.90;;;;;;10409694;28;20235;-73
2023/04/19 06:38:48;;;;;;;11.07;9.20;;;13.10;99.90;;;;;;10404936;28;20579;-74
2023/04/19 06:43:50;;;;;;;10.23;8.40;;;12.90;99.90;;;;;;10418566;28;20311;-75
2023/04/19 06:48:50;;;;;;;10.27;9.20;;;13.00;99.90;;;;;;10399206;28;20356;-73
2023/04/19 06:53:52;;;;;;;10.83;9.30;;;13.10;99.90;;;;;;10420891;28;20303;-73
2023/04/19 06:58:54;;;;;;;10.90;8.57;;;13.00;99.90;;;;;;10426323;28;20228;-72
2023/04/19 07:03:55;;;;;;;12.37;8.97;;;12.60;99.90;;;;;;10398181;28;20224;-72
2023/04/19 07:08:55;;;;;;;14.03;9.00;;;12.40;99.90;;;;;;10411541;28;20220;-72
2023/04/19 07:14:02;;;;;;;13.40;8.93;;;12.40;99.90;;;;;;10420674;28;20224;-71
2023/04/19 07:19:05;;;;;;;12.17;8.50;;;12.20;99.90;;;;;;10413218;28;20639;-72
2023/04/19 07:24:06;;;;;;;10.87;7.80;;;12.20;99.90;;;;;;10424222;28;20240;-73
2023/04/19 07:29:07;;;;;;;11.30;7.50;;;12.30;99.90;;;;;;10420907;28;20290;-72
2023/04/19 07:34:07;;;;;;;13.83;8.40;;;12.50;99.90;;;;;;10423650;28;20224;-74
2023/04/19 07:39:08;;;;;;;8.43;6.40;;;12.60;99.90;;;;;;10418618;28;20216;-72
2023/04/19 07:44:10;;;;;;;7.80;5.83;;;12.50;99.90;;;;;;10425387;28;20228;-74
2023/04/19 07:49:11;;;;;;;9.37;5.63;;;12.30;99.90;;;;;;10416889;28;20304;-74
2023/04/19 07:54:11;;;;;;;8.37;6.27;;;12.30;99.90;;;;;;10425716;28;20307;-73
2023/04/19 07:59:12;;;;;;;10.00;6.27;;;12.30;99.90;;;;;;10422074;28;20328;-74
2023/04/19 08:04:12;;;;;;;8.20;5.43;;;12.40;99.90;;;;;;10422033;28;20232;-73
2023/04/19 08:09:13;;;;;;;7.90;5.60;;;12.50;99.90;;;;;;10423358;28;20298;-72
2023/04/19 08:14:14;;;;;;;7.17;5.07;;;12.70;99.90;;;;;;10427851;28;20255;-73
2023/04/19 08:19:14;;;;;;;5.50;4.90;;;12.90;99.90;;;;;;10424408;28;20224;-72
2023/04/19 08:24:15;;;;;;;9.00;5.47;;;13.00;99.90;;;;;;10431508;28;20318;-74
2023/04/19 08:29:16;;;;;;;8.73;5.10;;;13.30;99.90;;;;;;10431965;28;20681;-73
2023/04/19 08:34:17;;;;;;;10.30;5.50;;;13.80;99.90;;;;;;10426169;28;20219;-73
2023/04/19 08:39:17;;;;;;;7.90;5.20;;;14.10;99.90;;;;;;10415617;28;20220;-72
2023/04/19 08:44:19;;;;;;;7.87;5.47;;;13.90;99.90;;;;;;10423547;28;20272;-73
2023/04/19 08:49:21;;;;;;;7.40;5.20;;;13.80;99.90;;;;;;10414647;28;20213;-75
2023/04/19 08:54:22;;;;;;;7.63;5.27;;;13.80;99.90;;;;;;10399872;28;20220;-74
2023/04/19 08:59:23;;;;;;;9.27;6.20;;;14.10;99.90;;;;;;10407036;28;20587;-75
2023/04/19 09:04:24;;;;;;;6.53;5.50;;;14.30;99.90;;;;;;10412477;28;20222;-74
2023/04/19 09:09:28;;;;;;;4.83;4.33;;;14.30;99.90;;;;;;10418747;28;20231;-73
2023/04/19 09:14:29;;;;;;;6.80;4.80;;;14.10;99.90;;;;;;10397202;28;20225;-73
2023/04/19 09:19:45;;;;;;;9.37;4.70;;;14.20;99.90;;;;;;10395258;28;20227;-73
2023/04/19 09:24:46;;;;;;;4.73;3.90;;;14.40;99.90;;;;;;10407692;28;20438;-73
2023/04/19 09:29:54;;;;;;;4.90;3.50;;;14.90;99.90;;;;;;10414623;28;20245;-73
2023/04/19 09:34:59;;;;;;;4.53;3.57;;;16.00;99.90;;;;;;10389682;28;20317;-73
2023/04/19 09:40:01;;;;;;;4.43;3.13;;;18.00;99.90;;;;;;10402150;28;20274;-73
2023/04/19 09:45:04;;;;;;;6.33;2.93;;;21.50;92.50;;;;;;10409415;28;20995;-74
2023/04/19 09:50:08;;;;;;;3.53;2.97;;;24.10;72.80;;;;;;10404139;28;20665;-74
2023/04/19 09:55:09;;;;;;;7.63;3.40;;;23.40;61.40;;;;;;10401890;28;20241;-72
2023/04/19 10:00:14;;;;;;;3.73;3.33;;;21.30;64.50;;;;;;10409619;28;20263;-74
2023/04/19 10:05:16;;;;;;;6.57;3.97;;;19.50;72.80;;;;;;10400209;28;20555;-71
2023/04/19 10:10:18;;;;;;;4.77;3.90;;;18.80;77.10;;;;;;10411476;28;20250;-73
2023/04/19 10:15:22;;;;;;;5.13;3.60;;;18.50;79.70;;;;;;10407350;28;20216;-72
2023/04/19 10:20:31;;;;;;;3.80;3.50;;;17.20;80.90;;;;;;10400862;28;20221;-72
2023/04/19 10:25:32;;;;;;;7.97;3.30;;;16.70;84.10;;;;;;10404840;28;20235;-74
2023/04/19 10:30:33;;;;;;;4.93;3.90;;;16.20;86.80;;;;;;10404957;28;20766;-73
2023/04/19 10:35:37;;;;;;;7.23;4.13;;;16.40;83.50;;;;;;10419689;28;20291;-73
2023/04/19 10:40:59;;;;;;;6.60;3.20;;;18.00;76.30;;;;;;10389996;28;20228;-74
2023/04/19 10:46:12;;;;;;;4.33;3.53;;;19.10;66.40;;;;;;10380915;28;20222;-74
2023/04/19 10:51:21;;;;;;;6.80;3.53;;;20.00;64.10;;;;;;10410784;28;20233;-74
2023/04/19 10:57:04;;;;;;;4.90;3.87;;;21.00;59.30;;;;;;10406380;28;20236;-74
2023/04/19 11:02:27;;;;;;;4.63;3.90;;;21.20;58.30;;;;;;10384292;28;20243;-73
2023/04/19 11:07:35;;;;;;;5.43;4.10;;;20.30;59.50;;;;;;10415324;28;20265;-72
2023/04/19 11:12:35;;;;;;;5.10;3.77;;;18.50;61.60;;;;;;10391393;28;20366;-74
2023/04/19 11:17:38;;;;;;;4.10;3.67;;;17.80;66.30;;;;;;10392808;28;20284;-73
2023/04/19 11:22:41;;;;;;;5.17;3.80;;;16.70;67.60;;;;;;10402327;28;20227;-71
2023/04/19 11:27:43;;;;;;;7.30;4.40;;;16.30;70.80;;;;;;10402787;28;20218;-72
2023/04/19 11:32:45;;;;;;;7.00;3.43;;;16.60;70.70;;;;;;10403594;28;20217;-73
2023/04/19 11:37:46;;;;;;;8.67;3.73;;;16.30;72.30;;;;;;10405156;28;20258;-72
2023/04/19 11:42:59;;;;;;;4.60;3.63;;;16.20;70.30;;;;;;10417197;28;20240;-72
2023/04/19 11:48:00;;;;;;;8.30;3.70;;;16.50;69.40;;;;;;10420726;28;20311;-73
2023/04/19 11:53:10;;;;;;;7.50;3.17;;;16.60;70.00;;;;;;10417793;28;20232;-73
2023/04/19 11:58:28;;;;;;;3.93;3.10;;;16.40;66.50;;;;;;10425527;28;20238;-73
2023/04/19 12:03:29;;;;;;;4.70;2.90;;;16.40;67.50;;;;;;10403946;28;20285;-72
2023/04/19 12:08:34;;;;;;;2.63;2.43;;;16.10;65.20;;;;;;10420660;28;20635;-72
2023/04/19 12:13:35;;;;;;;2.80;2.50;;;16.40;65.50;;;;;;10413890;28;20593;-73
2023/04/19 12:18:47;;;;;;;3.67;2.10;;;16.10;62.90;;;;;;10421959;28;20261;-73
2023/04/19 12:23:48;;;;;;;4.10;2.70;;;16.00;62.70;;;;;;10416158;28;20230;-73
2023/04/19 12:28:48;;;;;;;4.03;2.20;;;15.70;64.30;;;;;;10418148;28;20600;-73
2023/04/19 12:33:49;;;;;;;6.07;2.20;;;15.70;62.30;;;;;;10420430;28;20573;-73
2023/04/19 12:38:50;;;;;;;3.10;1.90;;;15.70;62.00;;;;;;10426236;28;20235;-73
2023/04/19 12:43:51;;;;;;;5.30;1.97;;;15.70;60.40;;;;;;10414479;28;20224;-73
2023/04/19 12:48:51;;;;;;;2.80;1.50;;;15.70;60.40;;;;;;10404972;28;20213;-73
2023/04/19 12:53:52;;;;;;;6.00;2.70;;;15.40;58.40;;;;;;10421195;28;20594;-72
2023/04/19 12:58:53;;;;;;;5.57;2.07;;;15.30;58.30;;;;;;10420776;28;20238;-72
2023/04/19 13:03:54;;;;;;;4.37;2.30;;;15.20;56.50;;;;;;10420562;28;20680;-73
2023/04/19 13:08:54;;;;;;;2.50;1.37;;;15.40;55.80;;;;;;10418307;28;20251;-72
2023/04/19 13:13:55;;;;;;;8.57;1.70;;;15.40;55.30;;;;;;10407496;28;20221;-72
2023/04/19 13:18:55;;;;;;;2.30;1.10;;;15.20;52.60;;;;;;10398384;28;20228;-74
2023/04/19 13:23:59;;;;;;;4.53;1.20;;;15.30;51.00;;;;;;10402322;28;20601;-72
2023/04/19 13:29:00;;;;;;;2.63;1.47;;;15.30;51.00;;;;;;10411345;28;20216;-74
2023/04/19 13:34:00;;;;;;;2.00;1.40;;;15.30;50.50;;;;;;10417451;28;20238;-73
2023/04/19 13:39:01;;;;;;;5.13;1.23;;;15.20;49.80;;;;;;10415990;28;20219;-73
2023/04/19 13:44:02;;;;;;;2.90;1.20;;;15.00;47.00;;;;;;10412049;28;20859;-72
2023/04/19 13:49:03;;;;;;;5.80;1.50;;;15.00;47.70;;;;;;10404331;28;20244;-73
2023/04/19 13:54:04;;;;;;;7.13;1.70;;;15.20;48.60;;;;;;10417932;28;20727;-73
2023/04/19 13:59:05;;;;;;;4.00;1.40;;;15.00;50.30;;;;;;10404772;28;20332;-73
2023/04/19 14:04:06;;;;;;;8.20;1.30;;;15.00;49.40;;;;;;10405400;28;20212;-73
2023/04/19 14:09:06;;;;;;;1.60;1.30;;;15.20;51.50;;;;;;10427431;28;20303;-73
2023/04/19 14:14:07;;;;;;;2.40;1.33;;;15.10;51.40;;;;;;10425590;28;20226;-73
2023/04/19 14:19:10;;;;;;;3.03;1.40;;;15.20;52.20;;;;;;10424393;28;20251;-73
2023/04/19 14:24:11;;;;;;;5.87;1.70;;;15.30;51.40;;;;;;10424472;28;20709;-73
2023/04/19 14:29:11;;;;;;;2.40;1.30;;;15.10;50.10;;;;;;10424115;28;20306;-72
2023/04/19 14:34:12;;;;;;;1.97;1.30;;;15.00;48.90;;;;;;10414359;28;20654;-74
2023/04/19 14:39:12;;;;;;;4.03;2.10;;;14.90;48.00;;;;;;10421131;28;20228;-73
2023/04/19 14:44:13;;;;;;;4.53;1.50;;;14.80;48.10;;;;;;10414162;28;20656;-72
2023/04/19 14:49:13;;;;;;;3.23;1.13;;;14.90;48.60;;;;;;10409369;28;20622;-73
2023/04/19 14:54:14;;;;;;;5.03;1.50;;;14.80;49.10;;;;;;10415528;28;20657;-72
2023/04/19 14:59:15;;;;;;;2.43;1.57;;;14.80;48.90;;;;;;10416366;28;20238;-72
2023/04/19 15:04:16;;;;;;;2.50;1.53;;;14.70;49.80;;;;;;10412145;28;20223;-72
2023/04/19 15:09:17;;;;;;;2.57;1.50;;;14.80;50.10;;;;;;10412618;28;20327;-73
2023/04/19 15:14:18;;;;;;;2.60;1.60;;;14.60;48.20;;;;;;10411562;28;20227;-72
2023/04/19 15:19:19;;;;;;;4.37;1.30;;;14.60;47.70;;;;;;10418283;28;20224;-72
2023/04/19 15:24:19;;;;;;;2.43;1.40;;;14.80;47.20;;;;;;10418931;28;20211;-72
2023/04/19 15:29:20;;;;;;;3.90;1.53;;;14.50;46.20;;;;;;10420029;28;20212;-72
2023/04/19 15:34:21;;;;;;;5.13;1.97;;;14.40;47.80;;;;;;10417371;28;20221;-72
2023/04/19 15:39:21;;;;;;;2.40;1.50;;;14.50;49.50;;;;;;10402858;28;20239;-67
2023/04/19 15:44:22;;;;;;;3.27;1.60;;;14.50;50.70;;;;;;10424270;28;20252;-67
2023/04/19 15:49:22;;;;;;;4.40;1.90;;;14.50;50.40;;;;;;10430901;28;20247;-68
2023/04/19 15:54:23;;;;;;;2.53;1.60;;;14.30;49.80;;;;;;10424674;28;20223;-67
2023/04/19 15:59:23;;;;;;;3.80;1.80;;;14.30;51.40;;;;;;10419338;28;20224;-67
2023/04/19 16:04:28;;;;;;;2.10;1.77;;;14.40;51.50;;;;;;10419758;28;20227;-72
2023/04/19 16:09:28;;;;;;;2.93;1.67;;;14.20;50.60;;;;;;10422420;28;20225;-72
2023/04/19 16:14:29;;;;;;;6.10;1.73;;;14.10;51.90;;;;;;10432103;28;20224;-73
2023/04/19 16:19:29;;;;;;;3.00;1.70;;;14.00;51.50;;;;;;10425494;28;20227;-72
2023/04/19 16:24:30;;;;;;;4.53;1.97;;;13.80;51.60;;;;;;10423818;28;20216;-73
2023/04/19 16:29:34;;;;;;;1.83;1.50;;;13.90;52.40;;;;;;10417756;28;20224;-74
2023/04/19 16:34:35;;;;;;;7.10;2.30;;;13.80;50.90;;;;;;10432153;28;20683;-73
2023/04/19 16:39:36;;;;;;;3.13;2.00;;;13.70;51.40;;;;;;10423061;28;20216;-72
2023/04/19 16:44:36;;;;;;;3.20;2.20;;;13.60;53.40;;;;;;10405297;28;20687;-74
2023/04/19 16:49:37;;;;;;;5.93;1.77;;;13.60;53.20;;;;;;10407701;28;20245;-72
2023/04/19 16:54:37;;;;;;;2.00;1.80;;;13.50;52.20;;;;;;10389370;28;20213;-73
2023/04/19 16:59:38;;;;;;;4.37;2.07;;;13.40;53.30;;;;;;10393495;28;20225;-74
2023/04/19 17:04:39;;;;;;;4.87;2.73;;;13.40;53.70;;;;;;10392246;28;20231;-74
2023/04/19 17:09:49;;;;;;;6.13;2.27;;;13.30;54.10;;;;;;10408429;28;20221;-72
2023/04/19 17:14:50;;;;;;;5.37;2.30;;;13.20;54.90;;;;;;10417057;28;20221;-73
2023/04/19 17:19:52;;;;;;;5.07;2.23;;;13.10;55.40;;;;;;10405832;28;20690;-76
2023/04/19 17:24:56;;;;;;;5.43;2.50;;;12.90;55.30;;;;;;10428743;28;20219;-74
2023/04/19 17:29:56;;;;;;;8.23;2.77;;;12.90;56.30;;;;;;10421733;28;20328;-71
2023/04/19 17:34:57;;;;;;;6.37;2.40;;;12.80;56.30;;;;;;10418890;28;20235;-75
2023/04/19 17:39:59;;;;;;;4.30;2.20;;;12.70;55.20;;;;;;10423063;28;20654;-73
2023/04/19 17:44:59;;;;;;;4.17;2.27;;;12.60;53.90;;;;;;10422236;28;20216;-73
2023/04/19 17:50:05;;;;;;;2.83;1.90;;;12.50;54.90;;;;;;10420313;28;20226;-73
2023/04/19 17:55:06;;;;;;;7.17;3.20;;;12.40;55.20;;;;;;10412585;28;20538;-74
2023/04/19 18:00:10;;;;;;;5.23;2.50;;;12.30;55.70;;;;;;10435820;28;20235;-73
2023/04/19 18:05:12;;;;;;;4.90;2.40;;;12.10;55.60;;;;;;10427289;28;20335;-72
2023/04/19 18:10:12;;;;;;;4.50;2.77;;;12.00;55.40;;;;;;10417760;28;20184;-72
2023/04/19 18:15:16;;;;;;;4.17;2.07;;;11.90;55.50;;;;;;10427599;28;20686;-72
2023/04/19 18:20:18;;;;;;;7.77;2.73;;;11.80;56.60;;;;;;10412435;28;20200;-72
2023/04/19 18:25:19;;;;;;;8.73;2.90;;;11.70;56.80;;;;;;10410085;28;20192;-72
2023/04/19 18:30:20;;;;;;;4.77;2.47;;;11.60;56.80;;;;;;10418563;28;20648;-72
2023/04/19 18:35:20;;;;;;;13.27;3.67;;;11.60;57.20;;;;;;10423343;28;20742;-72
2023/04/19 18:40:21;;;;;;;7.80;3.13;;;11.50;57.10;;;;;;10415750;28;20187;-73
2023/04/19 18:45:22;;;;;;;7.40;2.80;;;11.30;57.70;;;;;;10416438;28;20196;-71
2023/04/19 18:50:23;;;;;;;8.20;3.30;;;11.30;57.70;;;;;;10426886;28;20228;-73
2023/04/19 18:55:25;;;;;;;5.00;2.67;;;11.20;57.90;;;;;;10420813;28;20215;-72
2023/04/19 19:00:26;;;;;;;8.03;3.20;;;11.10;58.00;;;;;;10416084;28;20218;-71
2023/04/19 19:05:26;;;;;;;7.57;3.47;;;11.00;57.60;;;;;;10413258;28;20550;-74
2023/04/19 19:10:57;;;;;;;8.30;3.60;;;11.00;57.70;;;;;;10403679;28;20601;-77
2023/04/19 19:15:58;;;;;;;12.70;4.47;;;10.80;58.40;;;;;;10407771;28;20223;-73
2023/04/19 19:20:59;;;;;;;5.47;2.67;;;10.70;58.80;;;;;;10426686;28;20315;-73
2023/04/19 19:26:00;;;;;;;3.70;2.20;;;10.60;59.30;;;;;;10409601;28;20675;-75
2023/04/19 19:31:00;;;;;;;2.67;1.50;;;10.50;60.40;;;;;;10417309;28;20683;-74
2023/04/19 19:36:01;;;;;;;4.13;1.90;;;10.40;60.80;;;;;;10416580;28;20230;-75
2023/04/19 19:41:05;;;;;;;2.17;1.90;;;10.20;61.40;;;;;;10423210;28;20318;-74
2023/04/19 19:46:05;;;;;;;3.03;1.97;;;10.20;62.20;;;;;;10417979;28;20762;-75
2023/04/19 19:51:06;;;;;;;3.40;2.60;;;10.10;62.90;;;;;;10419686;28;20307;-72
2023/04/19 19:56:08;;;;;;;3.67;2.10;;;10.10;63.80;;;;;;10410080;28;20228;-75
2023/04/19 20:01:08;;;;;;;3.63;2.47;;;9.90;64.60;;;;;;10420231;28;20215;-74
2023/04/19 20:06:10;;;;;;;2.27;2.07;;;9.80;65.60;;;;;;10430005;28;20269;-75
2023/04/19 20:11:12;;;;;;;3.80;2.20;;;9.80;66.20;;;;;;10418828;28;20219;-74
2023/04/19 20:16:13;;;;;;;6.47;3.23;;;9.70;67.30;;;;;;10422029;28;20227;-72
2023/04/19 20:21:14;;;;;;;5.47;2.80;;;9.70;67.50;;;;;;10420065;28;20219;-74
2023/04/19 20:26:15;;;;;;;2.83;2.10;;;9.70;67.30;;;;;;10427316;28;20209;-74
2023/04/19 20:31:16;;;;;;;4.03;2.10;;;9.70;67.40;;;;;;10429051;28;20226;-74
2023/04/19 20:36:16;;;;;;;2.17;1.97;;;9.60;67.90;;;;;;10405929;28;20279;-73
2023/04/19 20:41:17;;;;;;;5.00;1.97;;;9.50;68.20;;;;;;10433777;28;20313;-74
2023/04/19 20:46:18;;;;;;;3.50;2.23;;;9.40;69.00;;;;;;10427583;28;20236;-73
2023/04/19 20:51:19;;;;;;;2.50;2.20;;;9.40;69.60;;;;;;10422102;28;20246;-73
2023/04/19 20:56:19;;;;;;;4.60;2.30;;;9.30;69.80;;;;;;10426107;28;20234;-74
2023/04/19 21:01:20;;;;;;;3.83;2.17;;;9.30;70.30;;;;;;10427092;28;20699;-74
2023/04/19 21:06:20;;;;;;;3.03;2.20;;;9.30;70.60;;;;;;10418964;28;20216;-74
2023/04/19 21:11:21;;;;;;;3.13;2.37;;;9.30;71.30;;;;;;10417660;28;20966;-75
2023/04/19 21:16:21;;;;;;;2.63;2.20;;;9.30;71.70;;;;;;10420470;28;20238;-74
2023/04/19 21:21:22;;;;;;;3.73;2.47;;;9.20;72.40;;;;;;10429081;28;20221;-72
2023/04/19 21:26:22;;;;;;;6.10;2.63;;;9.10;72.50;;;;;;10423755;28;20628;-72
2023/04/19 21:31:23;;;;;;;5.23;2.67;;;9.00;74.00;;;;;;10423700;28;20276;-71
2023/04/19 21:36:24;;;;;;;2.40;2.20;;;9.00;73.60;;;;;;10419729;28;20234;-71
2023/04/19 21:41:24;;;;;;;2.97;2.27;;;8.90;74.10;;;;;;10423786;28;20612;-74
2023/04/19 21:46:25;;;;;;;3.13;2.60;;;8.80;74.80;;;;;;10424492;28;20215;-74
2023/04/19 21:51:26;;;;;;;3.77;2.40;;;8.80;75.30;;;;;;10422445;28;20250;-73
2023/04/19 21:56:26;;;;;;;5.33;2.90;;;8.60;75.70;;;;;;10429509;28;20270;-74
2023/04/19 22:01:27;;;;;;;4.63;2.53;;;8.60;76.70;;;;;;10423794;28;20262;-72
2023/04/19 22:06:31;;;;;;;5.70;3.00;;;8.50;77.30;;;;;;10425971;28;20675;-74
2023/04/19 22:11:35;;;;;;;7.50;3.13;;;8.50;77.90;;;;;;10412186;28;20250;-75
2023/04/19 22:16:35;;;;;;;8.20;3.63;;;8.50;78.70;;;;;;10418689;28;20232;-75
2023/04/19 22:21:36;;;;;;;10.43;5.03;;;8.30;80.10;;;;;;10426207;28;20225;-75
2023/04/19 22:26:36;;;;;;;6.10;4.10;;;8.10;82.30;;;;;;10421090;28;20766;-74
2023/04/19 22:31:37;;;;;;;4.87;3.50;;;7.90;84.20;;;;;;10412992;28;20773;-71
2023/04/19 22:36:38;;;;;;;8.43;3.03;;;7.70;85.60;;;;;;10420866;28;20782;-74
2023/04/19 22:41:38;;;;;;;4.03;2.80;;;7.60;86.90;;;;;;10411102;28;20218;-72
2023/04/19 22:46:39;;;;;;;2.90;2.60;;;7.60;86.10;;;;;;10420837;28;20277;-72
2023/04/19 22:51:41;;;;;;;2.80;2.60;;;7.60;85.80;;;;;;10420100;28;20280;-73
2023/04/19 22:56:41;;;;;;;4.97;3.50;;;7.50;86.10;;;;;;10430453;28;20235;-73
2023/04/19 23:01:42;;;;;;;5.33;3.40;;;7.30;87.40;;;;;;10417443;28;20377;-72
2023/04/19 23:06:43;;;;;;;5.73;3.00;;;7.30;87.40;;;;;;10410786;28;20369;-72
2023/04/19 23:11:45;;;;;;;4.00;2.67;;;7.40;86.80;;;;;;10424649;28;20593;-72
2023/04/19 23:16:45;;;;;;;4.73;2.80;;;7.50;86.50;;;;;;10422337;28;20285;-73
2023/04/19 23:21:50;;;;;;;4.93;2.77;;;7.50;86.50;;;;;;10417117;28;20245;-74
2023/04/19 23:26:51;;;;;;;4.70;2.80;;;7.50;87.20;;;;;;10423883;28;20284;-75
2023/04/19 23:31:52;;;;;;;5.93;3.00;;;7.40;87.50;;;;;;10422954;28;20238;-72
2023/04/19 23:36:52;;;;;;;5.17;2.87;;;7.40;88.10;;;;;;10433887;28;20280;-71
2023/04/19 23:41:53;;;;;;;5.40;2.80;;;7.30;88.20;;;;;;10419515;28;20220;-71
2023/04/19 23:46:53;;;;;;;3.97;2.80;;;7.20;89.40;;;;;;10434382;28;20223;-71
2023/04/19 23:51:54;;;;;;;6.33;3.23;;;7.00;90.10;;;;;;10429800;28;20265;-71
2023/04/19 23:56:57;;;;;;;6.80;3.20;;;6.90;90.60;;;;;;10415163;28;20345;-71
